createdAt,value
2019-05-21T00:00:43.814Z,99763.13
2019-05-21T00:03:14.913Z,99765.41
2019-05-21T00:05:58.176Z,99771.19
2019-05-21T00:08:29.251Z,99764.55
2019-05-21T00:11:00.324Z,99774.13
2019-05-21T00:13:31.459Z,99784.00
2019-05-21T00:16:04.466Z,99770.23
2019-05-21T00:18:35.618Z,99774.38
2019-05-21T00:21:06.709Z,99780.62
2019-05-21T00:23:37.777Z,99785.99
2019-05-21T00:26:08.877Z,99785.02
2019-05-21T00:28:41.197Z,99787.23
2019-05-21T00:32:08.223Z,99780.45
2019-05-21T00:35:45.507Z,99782.66
2019-05-21T00:39:12.014Z,99780.46
2019-05-21T00:42:02.058Z,99787.13
2019-05-21T00:44:41.254Z,99782.06
2019-05-21T00:47:13.787Z,99786.86
2019-05-21T00:49:44.863Z,99784.44
2019-05-21T00:52:15.933Z,99787.35
2019-05-21T00:54:47.000Z,99786.70
2019-05-21T00:57:18.060Z,99785.66
2019-05-21T00:59:49.128Z,99785.99
2019-05-21T01:02:20.213Z,99792.61
2019-05-21T01:05:00.401Z,99786.22
2019-05-21T02:34:54.813Z,99803.29
2019-05-21T02:37:26.942Z,99810.95
2019-05-21T02:39:58.042Z,99812.69
2019-05-21T02:42:29.105Z,99812.83
2019-05-21T02:45:00.271Z,99813.94
2019-05-21T02:47:31.505Z,99813.70
2019-05-21T02:50:02.648Z,99810.00
2019-05-21T02:52:34.378Z,99811.61
2019-05-21T02:55:06.895Z,99807.98
2019-05-21T02:57:44.008Z,99815.07
2019-05-21T03:00:31.651Z,99814.12
2019-05-21T03:03:10.463Z,99810.56
2019-05-21T03:05:41.557Z,99819.67
2019-05-21T03:08:12.691Z,99813.89
2019-05-21T03:10:43.745Z,99817.39
2019-05-21T03:13:14.811Z,99819.97
2019-05-21T03:15:45.898Z,99815.47
2019-05-21T03:18:16.950Z,99816.28
2019-05-21T03:20:48.027Z,99824.73
2019-05-21T03:23:19.089Z,99834.52
2019-05-21T03:25:50.183Z,99835.85
2019-05-21T03:28:21.273Z,99838.07
2019-05-21T03:30:52.332Z,99840.69
2019-05-21T03:33:23.420Z,99840.59
2019-05-21T03:35:54.479Z,99839.75
2019-05-21T03:38:25.578Z,99838.77
2019-05-21T03:40:56.637Z,99843.20
2019-05-21T03:43:27.733Z,99835.72
2019-05-21T03:45:58.810Z,99843.78
2019-05-21T03:48:29.895Z,99842.34
2019-05-21T03:51:00.962Z,99840.22
2019-05-21T03:53:32.427Z,99847.81
2019-05-21T03:56:03.505Z,99848.75
2019-05-21T03:58:34.596Z,99848.75
2019-05-21T04:01:05.732Z,99854.19
2019-05-21T04:03:36.834Z,99858.70
2019-05-21T04:06:07.889Z,99864.64
2019-05-21T04:08:38.956Z,99862.48
2019-05-21T04:11:10.022Z,99862.48
2019-05-21T04:13:41.090Z,99862.66
2019-05-21T04:16:13.789Z,99859.09
2019-05-21T04:18:58.259Z,99858.25
2019-05-21T04:21:29.335Z,99866.82
2019-05-21T04:24:00.473Z,99863.80
2019-05-21T04:26:31.707Z,99863.86
2019-05-21T04:29:02.763Z,99866.65
2019-05-21T04:31:33.826Z,99873.91
2019-05-21T04:34:04.960Z,99882.13
2019-05-21T04:36:36.017Z,99880.55
2019-05-21T04:39:07.834Z,99878.86
2019-05-21T04:41:38.894Z,99876.03
2019-05-21T04:44:09.949Z,99883.75
2019-05-21T04:46:41.015Z,99887.06
2019-05-21T04:49:12.072Z,99889.45
2019-05-21T04:51:43.138Z,99889.11
2019-05-21T04:54:14.197Z,99893.20
2019-05-21T04:56:46.330Z,99898.67
2019-05-21T04:59:19.154Z,99904.10
2019-05-21T05:01:50.243Z,99901.58
2019-05-21T05:04:22.241Z,99893.68
2019-05-21T05:06:53.452Z,99899.89
2019-05-21T05:09:24.497Z,99902.20
2019-05-21T05:11:55.586Z,99907.57
2019-05-21T05:14:26.653Z,99907.57
2019-05-21T05:16:58.187Z,99910.73
2019-05-21T05:19:29.274Z,99922.94
2019-05-21T05:22:00.386Z,99913.16
2019-05-21T05:24:31.455Z,99922.63
2019-05-21T05:27:02.530Z,99923.50
2019-05-21T05:29:33.583Z,99924.02
2019-05-21T05:32:04.640Z,99930.37
2019-05-21T05:34:35.711Z,99934.39
2019-05-21T05:37:06.772Z,99934.92
2019-05-21T05:39:39.424Z,99933.58
2019-05-21T05:42:10.487Z,99926.05
2019-05-21T05:44:44.460Z,99933.73
2019-05-21T05:47:15.410Z,99927.02
2019-05-21T05:49:53.781Z,99928.90
2019-05-21T05:52:24.846Z,99933.80
2019-05-21T05:54:55.934Z,99937.52
2019-05-21T05:57:26.996Z,99942.25
2019-05-21T05:59:58.336Z,99943.13
2019-05-21T06:02:29.406Z,99949.38
2019-05-21T06:05:00.469Z,99956.45
2019-05-21T06:07:31.579Z,99963.58
2019-05-21T06:10:02.657Z,99962.70
2019-05-21T06:12:33.787Z,99964.04
2019-05-21T06:15:07.106Z,99965.38
2019-05-21T06:17:38.526Z,99966.20
2019-05-21T06:20:09.953Z,99965.73
2019-05-21T06:22:41.016Z,99969.75
2019-05-21T06:25:12.634Z,99965.73
2019-05-21T06:27:43.710Z,99966.20
2019-05-21T06:30:15.483Z,99967.13
2019-05-21T06:32:46.554Z,99974.25
2019-05-21T06:35:18.298Z,99970.22
2019-05-21T06:37:49.464Z,99968.88
2019-05-21T06:40:21.103Z,99971.97
2019-05-21T06:42:52.190Z,99980.39
2019-05-21T06:45:23.936Z,99986.17
2019-05-21T06:47:55.000Z,99988.45
2019-05-21T06:50:26.071Z,99987.58
2019-05-21T06:52:57.141Z,99983.64
2019-05-21T06:55:28.222Z,99993.82
2019-05-21T06:57:59.290Z,99995.98
2019-05-21T07:00:30.370Z,100002.28
2019-05-21T07:03:01.446Z,100016.58
2019-05-21T07:05:32.538Z,100012.23
2019-05-21T07:08:03.635Z,100018.55
2019-05-21T07:10:34.710Z,100010.08
2019-05-21T07:13:05.783Z,100014.58
2019-05-21T07:15:36.883Z,100021.75
2019-05-21T07:18:08.029Z,100021.69
2019-05-21T07:20:39.115Z,100028.41
2019-05-21T07:23:10.185Z,100024.44
2019-05-21T07:25:41.279Z,100038.27
2019-05-21T07:28:12.406Z,100033.42
2019-05-21T07:30:43.504Z,100036.98
2019-05-21T07:33:14.728Z,100043.23
2019-05-21T07:35:45.991Z,100049.16
2019-05-21T07:38:17.096Z,100048.69
2019-05-21T07:40:48.193Z,100043.38
2019-05-21T07:43:19.273Z,100055.40
2019-05-21T07:45:50.361Z,100055.40
2019-05-21T07:48:21.463Z,100061.61
2019-05-21T07:50:52.560Z,100059.73
2019-05-21T07:53:23.650Z,100062.42
2019-05-21T07:55:54.723Z,100062.83
2019-05-21T07:58:25.865Z,100063.77
2019-05-21T08:01:00.969Z,100066.86
2019-05-21T08:03:30.367Z,100065.52
2019-05-21T08:06:01.705Z,100066.77
2019-05-21T08:08:32.779Z,100069.86
2019-05-21T08:11:04.048Z,100071.92
2019-05-21T08:13:35.121Z,100082.55
2019-05-21T08:16:06.230Z,100084.30
2019-05-21T08:18:37.327Z,100086.42
2019-05-21T08:21:09.173Z,100087.23
2019-05-21T08:23:41.451Z,100089.05
2019-05-21T08:26:12.600Z,100094.89
2019-05-21T08:28:43.711Z,100091.80
2019-05-21T08:31:14.808Z,100088.64
2019-05-21T08:33:45.930Z,100093.95
2019-05-21T08:36:16.998Z,100092.98
2019-05-21T08:38:48.067Z,100087.23
2019-05-21T08:41:19.157Z,100090.39
2019-05-21T08:43:50.609Z,100098.86
2019-05-21T08:46:21.659Z,100101.04
2019-05-21T08:48:52.787Z,100098.35
2019-05-21T08:51:23.915Z,100102.38
2019-05-21T08:53:55.008Z,100097.98
2019-05-21T08:56:26.378Z,100100.66
2019-05-21T08:58:58.546Z,100097.10
2019-05-21T09:01:29.640Z,100098.45
2019-05-21T09:04:00.728Z,100098.45
2019-05-21T09:06:31.800Z,100105.16
2019-05-21T09:09:02.863Z,100113.68
2019-05-21T09:11:33.954Z,100111.00
2019-05-21T09:14:05.487Z,100112.80
2019-05-21T09:16:36.691Z,100117.23
2019-05-21T09:19:07.802Z,100117.16
2019-05-21T09:21:39.553Z,100123.39
2019-05-21T09:24:11.285Z,100123.39
2019-05-21T09:26:42.360Z,100121.99
2019-05-21T09:29:13.438Z,100128.24
2019-05-21T09:31:44.505Z,100132.27
2019-05-21T09:34:15.610Z,100134.08
2019-05-21T09:36:46.671Z,100133.14
2019-05-21T09:39:18.531Z,100135.89
2019-05-21T09:41:50.277Z,100140.84
2019-05-21T09:44:21.448Z,100138.31
2019-05-21T09:46:52.515Z,100141.47
2019-05-21T09:49:23.611Z,100142.81
2019-05-21T09:51:54.678Z,100146.37
2019-05-21T09:54:25.794Z,100153.90
2019-05-21T09:56:56.847Z,100149.37
2019-05-21T09:59:32.267Z,100150.66
2019-05-21T10:02:07.582Z,100151.12
2019-05-21T10:04:38.647Z,100155.62
2019-05-21T10:07:10.888Z,100162.89
2019-05-21T10:09:41.970Z,100160.11
2019-05-21T10:12:14.199Z,100162.80
2019-05-21T10:14:45.260Z,100161.45
2019-05-21T10:17:16.359Z,100165.58
2019-05-21T10:19:47.444Z,100164.64
2019-05-21T10:22:18.521Z,100164.14
2019-05-21T10:24:49.578Z,100165.48
2019-05-21T10:27:20.923Z,100174.82
2019-05-21T10:29:52.050Z,100181.48
2019-05-21T10:32:23.159Z,100188.19
2019-05-21T10:34:54.221Z,100185.50
2019-05-21T10:37:25.782Z,100188.19
2019-05-21T10:39:56.857Z,100186.50
2019-05-21T10:42:28.101Z,100185.71
2019-05-21T10:44:59.198Z,100192.06
2019-05-21T10:47:30.933Z,100195.72
2019-05-21T10:50:02.013Z,100200.27
2019-05-21T10:52:33.140Z,100196.85
2019-05-21T10:55:05.647Z,100203.16
2019-05-21T10:57:36.715Z,100201.87
2019-05-21T11:00:12.490Z,100207.33
2019-05-21T11:02:45.230Z,100207.52
2019-05-21T11:05:34.026Z,100208.98
2019-05-21T11:08:23.081Z,100219.44
2019-05-21T11:10:40.052Z,100225.09
2019-05-21T11:13:11.214Z,100224.27
2019-05-21T11:15:42.274Z,100230.56
2019-05-21T11:18:13.369Z,100235.61
2019-05-21T11:20:44.495Z,100249.63
2019-05-21T11:23:15.583Z,100248.91
2019-05-21T11:25:46.660Z,100245.41
2019-05-21T11:28:18.195Z,100247.30
2019-05-21T11:30:49.842Z,100253.73
2019-05-21T11:33:20.916Z,100250.69
2019-05-21T11:35:53.136Z,100248.09
2019-05-21T11:38:39.170Z,100254.89
2019-05-21T11:40:57.082Z,100254.48
2019-05-21T11:43:28.283Z,100252.81
2019-05-21T11:46:02.866Z,100255.95
2019-05-21T11:48:33.262Z,100258.17
2019-05-21T11:51:04.397Z,100270.58
2019-05-21T11:53:36.441Z,100279.04
2019-05-21T11:56:07.537Z,100263.36
2019-05-21T11:58:39.698Z,100269.05
2019-05-21T12:01:11.240Z,100275.24
2019-05-21T12:03:42.316Z,100278.80
2019-05-21T12:06:13.633Z,100284.12
2019-05-21T12:08:56.036Z,100283.23
2019-05-21T12:11:18.273Z,100288.61
2019-05-21T12:13:49.392Z,100282.27
2019-05-21T12:16:20.507Z,100291.62
2019-05-21T12:18:51.708Z,100292.95
2019-05-21T12:21:22.837Z,100290.33
2019-05-21T12:23:53.952Z,100289.40
2019-05-21T12:26:25.028Z,100296.57
2019-05-21T12:28:56.242Z,100300.22
2019-05-21T12:31:27.312Z,100293.55
2019-05-21T12:33:58.369Z,100296.66
2019-05-21T12:36:29.460Z,100301.06
2019-05-21T12:39:13.579Z,100299.72
2019-05-21T12:41:33.449Z,100300.59
2019-05-21T12:44:04.555Z,100303.69
2019-05-21T12:46:35.633Z,100293.83
2019-05-21T12:49:06.701Z,100313.03
2019-05-21T12:51:38.686Z,100309.05
2019-05-21T12:54:09.778Z,100309.11
2019-05-21T12:56:41.295Z,100311.79
2019-05-21T12:59:12.561Z,100314.47
2019-05-21T13:01:43.662Z,100312.75
2019-05-21T13:04:14.927Z,100324.00
2019-05-21T13:06:46.559Z,100320.11
2019-05-21T13:09:31.299Z,100325.06
2019-05-21T13:11:51.131Z,100324.23
2019-05-21T13:14:22.291Z,100331.89
2019-05-21T13:16:53.412Z,100332.36
2019-05-21T13:19:24.497Z,100327.45
2019-05-21T13:21:55.610Z,100337.36
2019-05-21T13:24:26.712Z,100330.73
2019-05-21T13:26:58.160Z,100341.00
2019-05-21T13:29:29.258Z,100343.78
2019-05-21T13:32:00.369Z,100338.41
2019-05-21T13:34:31.437Z,100351.73
2019-05-21T13:37:02.540Z,100349.80
2019-05-21T13:39:48.870Z,100347.45
2019-05-21T13:42:06.393Z,100347.34
2019-05-21T13:44:38.453Z,100347.27
2019-05-21T13:47:09.584Z,100350.69
2019-05-21T13:49:40.684Z,100347.91
2019-05-21T13:52:11.775Z,100349.63
2019-05-21T13:54:42.889Z,100356.23
2019-05-21T13:57:13.987Z,100349.06
2019-05-21T13:59:45.080Z,100355.78
2019-05-21T14:02:17.820Z,100353.56
2019-05-21T14:04:49.116Z,100356.29
2019-05-21T14:07:20.196Z,100360.86
2019-05-21T14:10:12.576Z,100363.55
2019-05-21T14:12:24.463Z,100359.52
2019-05-21T14:14:55.634Z,100365.81
2019-05-21T14:17:26.735Z,100359.16
2019-05-21T14:19:58.513Z,100361.05
2019-05-21T14:22:29.621Z,100363.31
2019-05-21T14:25:01.731Z,100369.61
2019-05-21T14:27:43.790Z,100362.95
2019-05-21T14:30:09.468Z,100365.71
2019-05-21T14:32:40.588Z,100366.77
2019-05-21T14:35:11.859Z,100369.55
2019-05-21T14:37:42.921Z,100367.88
2019-05-21T14:40:31.121Z,100370.60
2019-05-21T14:42:59.494Z,100371.24
2019-05-21T14:45:22.665Z,100377.73
2019-05-21T14:47:53.743Z,100381.98
2019-05-21T14:50:24.816Z,100384.96
2019-05-21T14:52:56.269Z,100390.88
2019-05-21T14:55:27.631Z,100386.56
2019-05-21T14:57:59.116Z,100404.53
2019-05-21T15:00:37.400Z,100387.78
2019-05-21T15:03:24.174Z,100387.95
2019-05-21T15:05:42.530Z,100396.23
2019-05-21T15:08:13.631Z,100392.77
2019-05-21T15:10:49.078Z,100402.68
2019-05-21T15:13:18.145Z,100395.11
2019-05-21T15:15:49.246Z,100392.97
2019-05-21T15:18:22.267Z,100399.67
2019-05-21T15:20:54.783Z,100401.00
2019-05-21T15:23:25.916Z,100404.61
2019-05-21T15:25:57.001Z,100407.29
2019-05-21T15:28:28.121Z,100413.06
2019-05-21T15:30:59.291Z,100411.84
2019-05-21T15:33:30.374Z,100410.09
2019-05-21T15:36:01.440Z,100406.58
2019-05-21T15:38:48.773Z,100408.84
2019-05-21T15:41:12.266Z,100416.06
2019-05-21T15:43:38.825Z,100409.38
2019-05-21T15:46:09.920Z,100415.15
2019-05-21T15:48:41.002Z,100411.13
2019-05-21T15:51:12.073Z,100416.87
2019-05-21T15:53:43.165Z,100414.73
2019-05-21T15:56:14.543Z,100401.80
2019-05-21T15:58:45.617Z,100412.97
2019-05-21T16:01:16.714Z,100407.20
2019-05-21T16:03:47.812Z,100414.42
2019-05-21T16:06:18.929Z,100414.93
2019-05-21T16:08:50.079Z,100425.23
2019-05-21T16:11:28.640Z,100419.48
2019-05-21T16:13:53.981Z,100424.31
2019-05-21T16:16:25.046Z,100431.84
2019-05-21T16:18:56.116Z,100431.73
2019-05-21T16:21:27.276Z,100421.42
2019-05-21T16:23:58.367Z,100424.98
2019-05-21T16:26:29.436Z,100416.48
2019-05-21T16:29:00.624Z,100415.53
2019-05-21T16:31:31.680Z,100423.57
2019-05-21T16:34:02.766Z,100432.48
2019-05-21T16:36:33.846Z,100432.95
2019-05-21T16:39:07.807Z,100431.15
2019-05-21T16:41:44.867Z,100430.69
2019-05-21T16:44:12.833Z,100436.05
2019-05-21T16:46:43.893Z,100433.44
2019-05-21T16:49:14.985Z,100429.34
2019-05-21T16:51:46.036Z,100432.03
2019-05-21T16:54:17.122Z,100440.98
2019-05-21T16:56:48.201Z,100445.00
2019-05-21T16:59:19.360Z,100443.28
2019-05-21T17:01:50.427Z,100454.00
2019-05-21T17:04:21.511Z,100451.25
2019-05-21T17:06:52.591Z,100451.25
2019-05-21T17:09:23.732Z,100454.88
2019-05-21T17:11:59.966Z,100457.06
2019-05-21T17:14:27.657Z,100449.98
2019-05-21T17:16:58.719Z,100457.91
2019-05-21T17:19:29.798Z,100450.63
2019-05-21T17:22:00.857Z,100462.19
2019-05-21T17:24:33.113Z,100463.56
2019-05-21T17:27:04.338Z,100462.34
2019-05-21T17:29:35.404Z,100462.42
2019-05-21T17:32:06.868Z,100473.21
2019-05-21T17:34:38.983Z,100464.80
2019-05-21T17:37:11.119Z,100468.77
2019-05-21T17:39:42.198Z,100475.97
2019-05-21T17:42:15.813Z,100476.05
2019-05-21T17:44:46.095Z,100473.38
2019-05-21T17:47:17.246Z,100479.23
2019-05-21T17:49:48.393Z,100483.70
2019-05-21T17:52:21.193Z,100492.28
2019-05-21T17:54:56.861Z,100483.86
2019-05-21T17:57:25.973Z,100487.19
2019-05-21T17:59:57.120Z,100485.01
2019-05-21T18:02:29.882Z,100494.88
2019-05-21T18:05:02.085Z,100501.19
2019-05-21T18:07:33.398Z,100499.93
2019-05-21T18:10:07.454Z,100500.04
2019-05-21T18:12:39.036Z,100512.13
2019-05-21T18:15:12.880Z,100511.78
2019-05-21T18:17:46.066Z,100510.55
2019-05-21T18:20:18.957Z,100509.25
2019-05-21T18:22:50.638Z,100514.64
2019-05-21T18:25:21.710Z,100529.80
2019-05-21T18:27:52.821Z,100528.41
2019-05-21T18:30:23.966Z,100531.48
2019-05-21T18:32:55.502Z,100532.78
2019-05-21T18:35:26.654Z,100531.91
2019-05-21T18:37:57.908Z,100534.55
2019-05-21T18:40:29.412Z,100546.06
2019-05-21T18:43:00.487Z,100542.02
2019-05-21T18:45:31.601Z,100550.47
2019-05-21T18:48:02.668Z,100547.79
2019-05-21T18:50:36.753Z,100556.70
2019-05-21T18:53:06.514Z,100565.20
2019-05-21T18:55:37.593Z,100565.30
2019-05-21T18:58:09.762Z,100566.26
2019-05-21T19:00:40.998Z,100564.57
2019-05-21T19:03:12.145Z,100572.64
2019-05-21T19:05:43.297Z,100575.31
2019-05-21T19:08:14.407Z,100575.31
2019-05-21T19:10:45.550Z,100588.74
2019-05-21T19:13:16.794Z,100586.59
2019-05-21T19:15:47.947Z,100591.56
2019-05-21T19:18:19.064Z,100594.30
2019-05-21T19:20:50.916Z,100596.59
2019-05-21T19:23:21.983Z,100595.78
2019-05-21T19:25:53.084Z,100598.92
2019-05-21T19:28:24.156Z,100602.05
2019-05-21T19:30:55.296Z,100606.07
2019-05-21T19:33:26.512Z,100601.62
2019-05-21T19:35:57.597Z,100603.89
2019-05-21T19:38:28.686Z,100612.44
2019-05-21T19:40:59.834Z,100616.07
2019-05-21T19:43:30.984Z,100614.73
2019-05-21T19:46:02.080Z,100627.20
2019-05-21T19:48:33.182Z,100619.27
2019-05-21T19:51:04.261Z,100609.94
2019-05-21T19:53:35.341Z,100624.23
2019-05-21T19:56:06.876Z,100620.78
2019-05-21T19:58:37.980Z,100625.25
2019-05-21T20:01:09.555Z,100634.59
2019-05-21T20:03:40.629Z,100632.79
2019-05-21T20:06:13.053Z,100641.28
2019-05-21T20:08:44.171Z,100646.17
2019-05-21T20:11:16.115Z,100651.10
2019-05-21T20:13:47.331Z,100643.08
2019-05-21T20:16:19.075Z,100648.42
2019-05-21T20:18:50.669Z,100657.31
2019-05-21T20:21:22.587Z,100658.13
2019-05-21T20:23:53.673Z,100655.91
2019-05-21T20:26:24.851Z,100668.47
2019-05-21T20:28:56.304Z,100662.27
2019-05-21T20:31:27.475Z,100668.53
2019-05-21T20:33:59.141Z,100665.02
2019-05-21T20:36:30.228Z,100666.84
2019-05-21T20:39:02.183Z,100665.17
2019-05-21T20:41:34.997Z,100667.42
2019-05-21T20:44:09.534Z,100671.08
2019-05-21T20:46:41.089Z,100663.14
2019-05-21T20:49:12.223Z,100668.63
2019-05-21T20:51:44.230Z,100669.17
2019-05-21T20:54:16.946Z,100678.11
2019-05-21T20:56:48.027Z,100663.88
2019-05-21T20:59:19.385Z,100668.41
2019-05-21T21:01:50.666Z,100672.48
2019-05-21T21:04:21.916Z,100669.88
2019-05-21T21:06:53.685Z,100668.08
2019-05-21T21:09:24.939Z,100668.08
2019-05-21T21:11:56.246Z,100673.10
2019-05-21T21:14:28.828Z,100672.67
2019-05-21T21:17:00.202Z,100684.29
2019-05-21T21:19:34.144Z,100684.77
2019-05-21T21:22:06.413Z,100679.94
2019-05-21T21:24:38.138Z,100687.56
2019-05-21T21:27:10.495Z,100688.97
2019-05-21T21:29:41.624Z,100685.84
2019-05-21T21:32:12.703Z,100681.83
2019-05-21T21:34:45.483Z,100684.95
2019-05-21T21:37:17.226Z,100690.25
2019-05-21T21:39:49.382Z,100693.41
2019-05-21T21:42:20.467Z,100684.50
2019-05-21T21:44:51.573Z,100682.73
2019-05-21T21:47:22.661Z,100672.98
2019-05-21T21:49:54.597Z,100673.92
2019-05-21T21:52:26.484Z,100671.73
2019-05-21T21:54:57.696Z,100671.30
2019-05-21T21:57:28.760Z,100680.19
2019-05-21T21:59:59.895Z,100681.09
2019-05-21T22:02:34.768Z,100690.03
2019-05-21T22:05:09.035Z,100694.55
2019-05-21T22:07:40.299Z,100691.00
2019-05-21T22:10:11.710Z,100684.41
2019-05-21T22:12:43.581Z,100685.77
2019-05-21T22:15:14.928Z,100687.59
2019-05-21T22:17:47.124Z,100693.34
2019-05-21T22:20:18.751Z,100695.01
2019-05-21T22:22:49.955Z,100704.80
2019-05-21T22:25:21.039Z,100696.80
2019-05-21T22:27:52.205Z,100695.49
2019-05-21T22:30:24.946Z,100697.32
2019-05-21T22:32:56.022Z,100700.39
2019-05-21T22:35:27.132Z,100708.02
2019-05-21T22:37:58.207Z,100709.84
2019-05-21T22:40:29.317Z,100700.14
2019-05-21T22:43:00.387Z,100695.33
2019-05-21T22:45:32.149Z,100706.03
2019-05-21T22:48:03.254Z,100706.14
2019-05-21T22:50:34.516Z,100705.71
2019-05-21T22:53:06.373Z,100719.99
2019-05-21T22:55:37.466Z,100723.17
2019-05-21T22:58:08.818Z,100725.36
2019-05-21T23:00:40.333Z,100721.84
2019-05-21T23:03:12.231Z,100718.31
2019-05-21T23:05:43.303Z,100724.63
2019-05-21T23:08:15.955Z,100722.89
2019-05-21T23:10:47.190Z,100721.61
2019-05-21T23:13:18.302Z,100723.97
2019-05-21T23:15:50.887Z,100722.22
2019-05-21T23:18:22.304Z,100728.53
2019-05-21T23:20:55.657Z,100731.29
2019-05-21T23:23:27.332Z,100719.73
2019-05-21T23:25:59.264Z,100713.54
2019-05-21T23:28:31.027Z,100714.48
2019-05-21T23:31:03.337Z,100722.50
2019-05-21T23:33:35.253Z,100719.83
2019-05-21T23:36:06.888Z,100724.81
2019-05-21T23:38:38.714Z,100719.48
2019-05-21T23:41:10.802Z,100720.91
2019-05-21T23:43:42.060Z,100710.23
2019-05-21T23:46:14.412Z,100721.89
2019-05-21T23:48:46.069Z,100717.02
2019-05-21T23:51:18.208Z,100725.55
2019-05-21T23:53:49.278Z,100722.45
2019-05-21T23:56:20.429Z,100729.05
2019-05-21T23:58:51.578Z,100736.61
